createdAt,value
2023-03-31T00:00:52.871Z,25.37
2023-03-31T00:03:24.290Z,18.83
2023-03-31T00:05:59.247Z,24.83
2023-03-31T00:08:35.645Z,26.42
2023-03-31T00:11:07.766Z,27.00
2023-03-31T00:13:36.762Z,23.40
2023-03-31T00:16:07.525Z,23.53
2023-03-31T00:18:35.238Z,24.52
2023-03-31T00:21:24.770Z,23.35
2023-03-31T00:23:56.846Z,21.65
2023-03-31T00:26:24.990Z,23.77
2023-03-31T00:28:53.164Z,22.77
2023-03-31T00:31:21.210Z,23.52
2023-03-31T00:33:49.529Z,25.88
2023-03-31T00:36:27.807Z,21.40
2023-03-31T00:39:00.013Z,21.58
2023-03-31T00:41:29.088Z,20.53
2023-03-31T00:44:25.467Z,24.17
2023-03-31T00:46:54.557Z,23.87
2023-03-31T00:49:32.924Z,26.37
2023-03-31T00:52:30.599Z,24.33
2023-03-31T00:55:03.367Z,24.87
2023-03-31T00:57:33.910Z,23.25
2023-03-31T01:00:15.657Z,21.83
2023-03-31T01:03:10.425Z,21.95
2023-03-31T01:05:47.343Z,22.17
2023-03-31T01:08:16.225Z,23.40
2023-03-31T01:10:48.256Z,22.10
2023-03-31T01:13:17.127Z,24.05
2023-03-31T01:15:44.609Z,25.73
2023-03-31T01:18:13.414Z,23.73
2023-03-31T01:20:47.266Z,23.47
2023-03-31T01:23:41.790Z,24.87
2023-03-31T01:26:42.016Z,24.58
2023-03-31T01:29:21.344Z,27.45
2023-03-31T01:31:57.194Z,26.45
2023-03-31T01:35:01.077Z,26.17
2023-03-31T01:37:28.572Z,24.25
2023-03-31T01:40:09.971Z,25.85
2023-03-31T01:42:36.888Z,25.40
2023-03-31T01:45:22.543Z,24.20
2023-03-31T01:48:00.767Z,23.77
2023-03-31T01:50:58.850Z,29.65
2023-03-31T01:53:36.572Z,24.25
2023-03-31T01:56:24.716Z,25.12
2023-03-31T01:59:03.659Z,26.70
2023-03-31T02:01:38.394Z,30.00
2023-03-31T02:04:13.423Z,29.55
2023-03-31T02:06:46.658Z,28.62
2023-03-31T02:09:18.808Z,31.30
2023-03-31T02:11:47.698Z,28.12
2023-03-31T02:14:21.996Z,27.73
2023-03-31T02:16:53.901Z,29.12
2023-03-31T02:19:23.496Z,30.80
2023-03-31T02:21:51.223Z,31.65
2023-03-31T02:24:21.554Z,36.60
2023-03-31T02:26:55.098Z,29.20
2023-03-31T02:29:22.271Z,31.95
2023-03-31T02:32:10.302Z,35.10
2023-03-31T02:34:37.840Z,27.52
2023-03-31T02:37:04.826Z,25.75
2023-03-31T02:39:35.750Z,27.90
2023-03-31T02:42:08.732Z,29.23
2023-03-31T02:44:37.459Z,25.58
2023-03-31T02:47:08.292Z,23.55
2023-03-31T02:49:38.348Z,23.80
2023-03-31T02:52:43.005Z,20.37
2023-03-31T02:55:31.659Z,17.98
2023-03-31T02:58:27.429Z,24.75
2023-03-31T03:01:12.009Z,18.80
2023-03-31T03:04:13.781Z,19.75
2023-03-31T03:06:57.637Z,17.47
2023-03-31T03:09:43.213Z,17.73
2023-03-31T03:12:17.972Z,16.40
2023-03-31T03:14:54.017Z,18.05
2023-03-31T03:17:29.129Z,19.12
2023-03-31T03:20:00.752Z,17.87
2023-03-31T03:22:27.920Z,18.20
2023-03-31T03:24:55.062Z,18.80
2023-03-31T03:27:24.808Z,20.25
2023-03-31T03:29:52.101Z,20.15
2023-03-31T03:32:19.457Z,16.57
2023-03-31T03:34:46.354Z,18.48
2023-03-31T03:37:13.229Z,16.77
2023-03-31T03:39:40.485Z,17.70
2023-03-31T03:42:07.402Z,17.58
2023-03-31T03:44:34.299Z,18.27
2023-03-31T03:47:01.458Z,18.98
2023-03-31T03:49:28.395Z,18.58
2023-03-31T03:51:55.926Z,18.35
2023-03-31T03:54:23.374Z,19.58
2023-03-31T03:56:50.550Z,18.67
2023-03-31T03:59:18.250Z,17.23
2023-03-31T04:01:45.608Z,20.05
2023-03-31T04:04:12.654Z,18.23
2023-03-31T04:06:39.722Z,19.15
2023-03-31T04:09:07.049Z,19.60
2023-03-31T04:11:34.009Z,20.50
2023-03-31T04:14:01.282Z,18.50
2023-03-31T04:16:28.590Z,19.35
2023-03-31T04:18:59.089Z,22.42
2023-03-31T04:21:26.263Z,20.60
2023-03-31T04:24:04.559Z,22.95
2023-03-31T04:26:43.333Z,18.67
2023-03-31T04:29:16.732Z,14.68
2023-03-31T04:31:44.041Z,16.02
2023-03-31T04:34:15.693Z,16.03
2023-03-31T04:36:47.803Z,15.20
2023-03-31T04:39:35.356Z,14.20
2023-03-31T04:42:02.543Z,16.15
2023-03-31T04:44:29.910Z,16.62
2023-03-31T04:46:58.898Z,19.50
2023-03-31T04:49:26.186Z,19.27
2023-03-31T04:51:53.308Z,20.45
2023-03-31T04:54:20.730Z,19.75
2023-03-31T04:56:48.320Z,21.55
2023-03-31T04:59:15.788Z,19.20
2023-03-31T05:01:45.674Z,20.52
2023-03-31T05:04:12.850Z,23.83
2023-03-31T05:06:39.946Z,18.90
2023-03-31T05:09:07.301Z,19.98
2023-03-31T05:11:34.786Z,22.40
2023-03-31T05:14:01.794Z,15.18
2023-03-31T05:16:28.848Z,17.08
2023-03-31T05:18:56.389Z,19.80
2023-03-31T05:21:24.250Z,23.85
2023-03-31T05:23:51.501Z,20.90
2023-03-31T05:26:18.507Z,17.70
2023-03-31T05:28:45.782Z,20.25
2023-03-31T05:31:13.296Z,20.23
2023-03-31T05:33:42.206Z,21.12
2023-03-31T05:36:15.146Z,22.10
2023-03-31T05:38:43.489Z,19.90
2023-03-31T05:41:11.226Z,23.62
2023-03-31T05:43:39.620Z,22.27
2023-03-31T05:46:07.346Z,20.27
2023-03-31T05:48:35.160Z,18.97
2023-03-31T05:51:02.363Z,18.65
2023-03-31T05:53:30.068Z,19.70
2023-03-31T05:56:02.167Z,15.93
2023-03-31T05:58:29.855Z,20.55
2023-03-31T06:01:09.510Z,19.77
2023-03-31T06:03:41.250Z,17.80
2023-03-31T06:06:09.280Z,16.95
2023-03-31T06:08:38.048Z,15.80
2023-03-31T06:11:07.200Z,16.37
2023-03-31T06:13:38.662Z,14.67
2023-03-31T06:16:06.433Z,12.80
2023-03-31T06:18:35.543Z,13.13
2023-03-31T06:21:03.655Z,15.05
2023-03-31T06:23:31.068Z,10.35
2023-03-31T06:26:03.676Z,9.80
2023-03-31T06:28:31.331Z,9.05
2023-03-31T06:31:09.573Z,10.85
2023-03-31T06:33:37.027Z,8.40
2023-03-31T06:36:05.948Z,7.50
2023-03-31T06:38:34.951Z,8.83
2023-03-31T06:41:02.364Z,9.70
2023-03-31T06:43:29.400Z,7.32
2023-03-31T06:45:58.752Z,8.98
2023-03-31T06:48:27.814Z,8.05
2023-03-31T06:50:55.906Z,7.93
2023-03-31T06:53:23.294Z,11.02
2023-03-31T06:55:50.833Z,10.13
2023-03-31T06:58:18.085Z,8.13
2023-03-31T07:00:46.199Z,6.95
2023-03-31T07:03:13.872Z,7.73
2023-03-31T07:05:41.144Z,6.62
2023-03-31T07:08:08.434Z,6.62
2023-03-31T07:10:35.348Z,7.47
2023-03-31T07:13:04.375Z,7.30
2023-03-31T07:15:32.458Z,5.50
2023-03-31T07:18:02.283Z,5.62
2023-03-31T07:20:30.725Z,7.43
2023-03-31T07:22:58.263Z,5.03
2023-03-31T07:25:26.055Z,5.57
2023-03-31T07:27:53.128Z,5.13
2023-03-31T07:30:20.912Z,5.35
2023-03-31T07:32:50.327Z,4.87
2023-03-31T07:35:18.458Z,5.18
2023-03-31T07:37:47.382Z,4.60
2023-03-31T07:40:21.741Z,11.70
2023-03-31T07:42:51.862Z,4.43
2023-03-31T07:45:21.431Z,4.53
2023-03-31T07:47:49.568Z,4.55
2023-03-31T07:50:17.621Z,4.03
2023-03-31T07:52:47.171Z,5.10
2023-03-31T07:55:14.999Z,3.92
2023-03-31T07:57:43.551Z,4.10
2023-03-31T08:00:14.893Z,3.12
2023-03-31T08:02:47.436Z,3.40
2023-03-31T08:05:18.215Z,4.87
2023-03-31T08:07:48.687Z,7.22
2023-03-31T08:10:21.116Z,4.70
2023-03-31T08:12:51.158Z,4.20
2023-03-31T08:15:18.551Z,4.03
2023-03-31T08:17:46.172Z,4.03
2023-03-31T08:20:13.651Z,3.25
2023-03-31T08:22:41.198Z,4.85
2023-03-31T08:25:10.016Z,5.15
2023-03-31T08:27:40.860Z,2.50
2023-03-31T08:30:12.900Z,4.77
2023-03-31T08:32:40.414Z,4.70
2023-03-31T08:35:08.624Z,2.25
2023-03-31T08:37:36.431Z,2.75
2023-03-31T08:40:10.273Z,5.53
2023-03-31T08:42:50.714Z,3.77
2023-03-31T08:45:44.307Z,4.05
2023-03-31T08:48:26.213Z,2.53
2023-03-31T08:51:24.592Z,6.43
2023-03-31T08:54:03.675Z,3.03
2023-03-31T08:56:39.383Z,3.10
2023-03-31T08:59:27.646Z,3.47
2023-03-31T09:02:30.403Z,3.78
2023-03-31T09:05:14.782Z,4.05
2023-03-31T09:07:49.331Z,3.03
2023-03-31T09:10:42.335Z,5.00
2023-03-31T09:13:32.261Z,3.87
2023-03-31T09:16:15.565Z,3.45
2023-03-31T09:18:47.117Z,5.00
2023-03-31T09:21:31.063Z,5.18
2023-03-31T09:24:27.514Z,3.67
2023-03-31T09:27:06.168Z,1.75
2023-03-31T09:30:05.029Z,3.17
2023-03-31T09:32:33.912Z,3.85
2023-03-31T09:35:29.316Z,3.65
2023-03-31T09:37:59.334Z,2.60
2023-03-31T09:40:28.598Z,3.95
2023-03-31T09:43:11.759Z,4.93
2023-03-31T09:45:39.349Z,2.65
2023-03-31T09:48:15.167Z,4.85
2023-03-31T09:51:15.416Z,5.93
2023-03-31T09:53:56.018Z,4.03
2023-03-31T09:56:51.616Z,5.05
2023-03-31T09:59:30.929Z,3.30
2023-03-31T10:02:04.123Z,3.03
2023-03-31T10:04:35.059Z,2.53
2023-03-31T10:07:06.084Z,5.72
2023-03-31T10:09:38.916Z,4.05
2023-03-31T10:12:18.365Z,4.25
2023-03-31T10:14:50.040Z,4.87
2023-03-31T10:17:24.417Z,4.67
2023-03-31T10:19:54.256Z,5.03
2023-03-31T10:22:22.734Z,4.22
2023-03-31T10:24:53.756Z,6.00
2023-03-31T10:27:31.062Z,3.30
2023-03-31T10:30:04.080Z,4.50
2023-03-31T10:32:55.489Z,4.12
2023-03-31T10:35:39.251Z,3.92
2023-03-31T10:38:13.171Z,3.35
2023-03-31T10:40:50.403Z,4.45
2023-03-31T10:43:27.949Z,2.00
2023-03-31T10:46:00.661Z,5.22
2023-03-31T10:48:40.066Z,5.82
2023-03-31T10:51:33.622Z,6.62
2023-03-31T10:54:04.627Z,3.28
2023-03-31T10:56:51.922Z,2.27
2023-03-31T10:59:33.264Z,2.67
2023-03-31T11:02:51.691Z,3.37
2023-03-31T11:05:42.707Z,2.75
2023-03-31T11:08:37.245Z,4.22
2023-03-31T11:11:42.824Z,2.63
2023-03-31T11:14:28.742Z,1.87
2023-03-31T11:17:27.749Z,1.70
2023-03-31T11:20:16.571Z,3.50
2023-03-31T11:22:54.161Z,3.15
2023-03-31T11:25:46.237Z,2.40
2023-03-31T11:28:35.199Z,2.85
2023-03-31T11:31:18.879Z,1.90
2023-03-31T11:34:25.201Z,5.85
2023-03-31T11:37:07.753Z,5.30
2023-03-31T11:40:19.816Z,3.07
2023-03-31T11:43:15.539Z,2.03
2023-03-31T11:58:11.401Z,2.15
2023-03-31T12:12:42.732Z,1.42
2023-03-31T12:15:15.757Z,4.15
2023-03-31T12:17:52.146Z,2.20
2023-03-31T12:20:39.902Z,3.72
2023-03-31T12:23:15.140Z,4.53
2023-03-31T12:25:52.315Z,7.78
2023-03-31T12:28:20.753Z,2.10
2023-03-31T12:30:48.885Z,2.50
2023-03-31T12:33:31.446Z,3.37
2023-03-31T12:36:04.463Z,3.40
2023-03-31T12:38:53.728Z,2.47
2023-03-31T12:41:44.226Z,2.00
2023-03-31T12:44:24.066Z,2.17
2023-03-31T12:47:17.725Z,2.37
2023-03-31T12:50:00.570Z,3.77
2023-03-31T12:53:06.364Z,4.30
2023-03-31T12:55:41.490Z,3.72
2023-03-31T12:58:44.061Z,4.32
2023-03-31T13:01:57.041Z,3.30
2023-03-31T13:04:27.494Z,5.50
2023-03-31T13:06:59.555Z,2.28
2023-03-31T13:09:43.458Z,2.80
2023-03-31T13:12:19.688Z,3.50
2023-03-31T13:14:51.805Z,2.40
2023-03-31T13:17:31.767Z,5.03
2023-03-31T13:20:31.663Z,3.22
2023-03-31T13:23:11.474Z,3.55
2023-03-31T13:26:02.899Z,2.72
2023-03-31T13:28:42.684Z,3.95
2023-03-31T13:31:14.579Z,4.43
2023-03-31T13:33:49.675Z,3.75
2023-03-31T13:36:22.545Z,3.35
2023-03-31T13:39:26.471Z,4.50
2023-03-31T13:42:07.010Z,2.80
2023-03-31T13:44:51.559Z,2.93
2023-03-31T13:47:46.291Z,2.65
2023-03-31T13:51:11.081Z,4.03
2023-03-31T13:54:29.260Z,2.40
2023-03-31T13:57:27.200Z,3.12
2023-03-31T14:00:24.586Z,5.93
2023-03-31T14:03:29.855Z,4.95
2023-03-31T14:06:21.103Z,3.15
2023-03-31T14:08:55.416Z,4.93
2023-03-31T14:11:29.343Z,3.55
2023-03-31T14:14:07.755Z,4.63
2023-03-31T14:16:40.919Z,4.57
2023-03-31T14:19:10.972Z,4.37
2023-03-31T14:21:53.478Z,3.80
2023-03-31T14:24:33.273Z,5.03
2023-03-31T14:27:12.394Z,2.47
2023-03-31T14:29:55.302Z,3.47
2023-03-31T14:32:53.516Z,3.08
2023-03-31T14:35:39.482Z,2.78
2023-03-31T14:38:14.457Z,2.80
2023-03-31T14:41:00.928Z,4.03
2023-03-31T14:43:33.942Z,4.40
2023-03-31T14:46:07.227Z,4.70
2023-03-31T14:48:45.225Z,3.03
2023-03-31T14:51:15.912Z,2.30
2023-03-31T14:53:43.656Z,2.20
2023-03-31T14:56:21.325Z,3.42
2023-03-31T14:58:52.917Z,3.83
2023-03-31T15:01:26.423Z,3.47
2023-03-31T15:03:55.174Z,4.82
2023-03-31T15:06:26.344Z,2.57
2023-03-31T15:08:57.975Z,3.33
2023-03-31T15:11:28.917Z,3.55
2023-03-31T15:14:05.121Z,3.62
2023-03-31T15:16:43.777Z,4.07
2023-03-31T15:19:26.226Z,10.70
2023-03-31T15:21:56.656Z,2.72
2023-03-31T15:24:24.208Z,4.00
2023-03-31T15:27:04.346Z,2.53
2023-03-31T15:29:53.234Z,6.25
2023-03-31T15:32:27.283Z,6.67
2023-03-31T15:34:55.554Z,6.12
2023-03-31T15:37:31.934Z,5.05
2023-03-31T15:40:02.633Z,2.47
2023-03-31T15:42:29.770Z,5.00
2023-03-31T15:45:23.441Z,2.33
2023-03-31T15:47:54.338Z,2.67
2023-03-31T15:50:23.779Z,6.10
2023-03-31T15:52:53.849Z,3.83
2023-03-31T15:55:44.400Z,5.90
2023-03-31T15:58:16.832Z,8.63
2023-03-31T16:00:47.475Z,1.98
2023-03-31T16:03:23.581Z,3.05
2023-03-31T16:06:00.571Z,2.78
2023-03-31T16:08:38.150Z,6.25
2023-03-31T16:11:18.800Z,6.10
2023-03-31T16:13:53.467Z,6.15
2023-03-31T16:16:24.074Z,3.65
2023-03-31T16:19:05.882Z,3.92
2023-03-31T16:21:52.670Z,3.55
2023-03-31T16:24:21.706Z,3.93
2023-03-31T16:26:49.260Z,6.70
2023-03-31T16:29:22.096Z,2.50
2023-03-31T16:31:49.174Z,3.97
2023-03-31T16:34:16.592Z,3.67
2023-03-31T16:36:43.869Z,2.73
2023-03-31T16:39:11.508Z,3.00
2023-03-31T16:41:38.814Z,4.72
2023-03-31T16:44:06.573Z,2.30
2023-03-31T16:46:34.163Z,4.53
2023-03-31T16:49:01.432Z,5.77
2023-03-31T16:51:28.879Z,2.80
2023-03-31T16:53:58.370Z,5.15
2023-03-31T16:56:27.251Z,3.22
2023-03-31T16:58:55.631Z,3.30
2023-03-31T17:01:23.522Z,4.30
2023-03-31T17:03:51.966Z,2.87
2023-03-31T17:06:19.396Z,4.28
2023-03-31T17:08:46.813Z,6.37
2023-03-31T17:11:14.879Z,5.15
2023-03-31T17:13:44.831Z,4.10
2023-03-31T17:19:02.112Z,3.72
2023-03-31T17:21:31.003Z,4.35
2023-03-31T17:23:59.306Z,3.72
2023-03-31T17:26:27.784Z,3.00
2023-03-31T17:28:55.922Z,2.80
2023-03-31T17:31:25.034Z,3.05
2023-03-31T17:33:52.345Z,3.78
2023-03-31T17:36:19.450Z,3.20
2023-03-31T17:38:50.597Z,2.80
2023-03-31T17:41:19.230Z,4.82
2023-03-31T17:43:49.059Z,1.70
2023-03-31T17:46:19.043Z,3.37
2023-03-31T17:48:49.734Z,3.83
2023-03-31T17:51:19.056Z,4.67
2023-03-31T17:53:50.066Z,2.85
2023-03-31T17:56:18.005Z,2.17
2023-03-31T17:58:46.478Z,4.28
2023-03-31T18:01:14.521Z,4.57
2023-03-31T18:03:42.678Z,3.53
2023-03-31T18:06:13.353Z,3.95
2023-03-31T18:08:42.201Z,2.75
2023-03-31T18:11:11.649Z,5.37
2023-03-31T18:13:42.419Z,5.15
2023-03-31T18:16:11.125Z,6.17
2023-03-31T18:18:39.890Z,4.68
2023-03-31T18:21:11.104Z,6.97
2023-03-31T18:23:39.916Z,4.50
2023-03-31T18:26:09.326Z,6.68
2023-03-31T18:28:36.729Z,4.80
2023-03-31T18:31:06.114Z,5.15
2023-03-31T18:33:34.967Z,6.62
2023-03-31T18:36:02.642Z,3.90
2023-03-31T18:38:31.370Z,4.70
2023-03-31T18:40:59.610Z,3.33
2023-03-31T18:43:28.517Z,6.53
2023-03-31T18:45:58.812Z,4.70
2023-03-31T18:48:26.321Z,5.28
2023-03-31T18:50:55.842Z,3.40
2023-03-31T18:53:26.942Z,4.57
2023-03-31T18:55:57.401Z,4.47
2023-03-31T18:58:27.052Z,5.35
2023-03-31T19:00:56.440Z,3.75
2023-03-31T19:03:27.535Z,3.83
2023-03-31T19:06:05.017Z,3.17
2023-03-31T19:08:34.871Z,2.95
2023-03-31T19:11:09.956Z,5.93
2023-03-31T19:13:41.005Z,5.43
2023-03-31T19:16:11.528Z,3.03
2023-03-31T19:18:40.228Z,4.87
2023-03-31T19:21:09.648Z,3.22
2023-03-31T19:23:37.666Z,3.55
2023-03-31T19:26:06.733Z,4.80
2023-03-31T19:28:35.185Z,5.15
2023-03-31T19:31:05.659Z,3.40
2023-03-31T19:33:36.861Z,1.35
2023-03-31T19:36:04.735Z,3.00
2023-03-31T19:38:37.309Z,0.95
2023-03-31T19:41:07.021Z,2.55
2023-03-31T19:43:37.834Z,1.00
2023-03-31T19:46:06.779Z,2.10
2023-03-31T19:48:36.089Z,3.03
2023-03-31T19:51:05.130Z,2.58
2023-03-31T19:53:34.032Z,1.08
2023-03-31T19:56:05.877Z,0.73
2023-03-31T19:58:36.472Z,0.70
2023-03-31T20:01:07.629Z,1.90
2023-03-31T20:03:35.696Z,1.15
2023-03-31T20:06:12.109Z,0.88
2023-03-31T20:08:43.014Z,0.80
2023-03-31T20:11:14.066Z,0.73
2023-03-31T20:13:43.773Z,0.88
2023-03-31T20:16:20.872Z,0.80
2023-03-31T20:18:56.058Z,0.80
2023-03-31T20:21:26.271Z,2.00
2023-03-31T20:23:54.758Z,0.60
2023-03-31T20:26:25.798Z,1.50
2023-03-31T20:28:57.020Z,1.67
2023-03-31T20:31:28.232Z,1.52
2023-03-31T20:33:57.081Z,1.93
2023-03-31T20:36:29.182Z,1.58
2023-03-31T20:38:57.577Z,1.08
2023-03-31T20:41:28.344Z,2.42
2023-03-31T20:43:57.270Z,2.45
2023-03-31T20:46:25.361Z,0.43
2023-03-31T20:48:58.333Z,3.42
2023-03-31T20:51:28.851Z,1.00
2023-03-31T20:53:57.832Z,0.82
2023-03-31T20:56:28.269Z,0.77
2023-03-31T20:59:00.133Z,2.00
2023-03-31T21:01:30.589Z,1.60
2023-03-31T21:04:01.259Z,0.70
2023-03-31T21:06:32.687Z,1.25
2023-03-31T21:08:59.709Z,1.87
2023-03-31T21:11:27.456Z,1.60
2023-03-31T21:13:56.460Z,2.45
2023-03-31T21:16:23.879Z,1.33
2023-03-31T21:18:51.830Z,1.10
2023-03-31T21:21:19.580Z,1.17
2023-03-31T21:23:47.308Z,2.07
2023-03-31T21:26:15.855Z,2.10
2023-03-31T21:28:43.636Z,1.40
2023-03-31T21:31:17.229Z,0.90
2023-03-31T21:33:46.130Z,0.93
2023-03-31T21:36:16.591Z,1.83
2023-03-31T21:38:45.746Z,1.12
2023-03-31T21:41:23.136Z,1.08
2023-03-31T21:43:57.977Z,1.70
2023-03-31T21:46:28.282Z,2.22
2023-03-31T21:48:56.568Z,2.67
2023-03-31T21:51:24.422Z,2.97
2023-03-31T21:53:53.237Z,1.52
2023-03-31T21:56:20.291Z,1.98
2023-03-31T21:58:47.359Z,3.47
2023-03-31T22:01:14.747Z,3.83
2023-03-31T22:03:42.517Z,3.03
2023-03-31T22:06:10.237Z,3.30
2023-03-31T22:08:39.036Z,2.78
2023-03-31T22:11:08.034Z,2.80
2023-03-31T22:13:36.078Z,4.97
2023-03-31T22:16:05.323Z,3.20
2023-03-31T22:18:33.248Z,2.53
2023-03-31T22:21:03.366Z,4.07
2023-03-31T22:23:30.446Z,3.15
2023-03-31T22:25:57.769Z,2.97
2023-03-31T22:28:24.764Z,2.55
2023-03-31T22:30:52.202Z,3.90
2023-03-31T22:33:19.107Z,3.33
2023-03-31T22:35:46.274Z,3.30
2023-03-31T22:38:14.052Z,2.40
2023-03-31T22:40:41.461Z,2.70
2023-03-31T22:43:08.665Z,1.50
2023-03-31T22:45:37.909Z,2.30
2023-03-31T22:48:07.696Z,2.05
2023-03-31T22:50:34.672Z,2.07
2023-03-31T22:53:01.919Z,1.70
2023-03-31T22:55:29.628Z,2.85
2023-03-31T22:57:57.120Z,1.83
2023-03-31T23:00:24.201Z,3.08
2023-03-31T23:02:51.340Z,3.13
2023-03-31T23:05:19.119Z,2.22
2023-03-31T23:07:46.764Z,2.78
2023-03-31T23:10:14.129Z,2.40
2023-03-31T23:12:41.325Z,3.67
2023-03-31T23:15:08.834Z,4.20
2023-03-31T23:17:35.849Z,5.90
2023-03-31T23:20:04.141Z,3.10
2023-03-31T23:22:31.387Z,3.15
2023-03-31T23:24:58.617Z,3.67
2023-03-31T23:27:25.608Z,3.47
2023-03-31T23:29:52.587Z,3.33
2023-03-31T23:32:19.622Z,3.22
2023-03-31T23:34:46.624Z,3.08
2023-03-31T23:37:14.510Z,6.18
2023-03-31T23:39:41.928Z,4.40
2023-03-31T23:42:10.661Z,3.00
2023-03-31T23:44:38.015Z,4.40
2023-03-31T23:47:06.051Z,3.33
2023-03-31T23:49:33.530Z,2.08
2023-03-31T23:52:00.796Z,3.10
2023-03-31T23:54:27.842Z,2.10
2023-03-31T23:56:55.179Z,1.05
2023-03-31T23:59:22.513Z,4.20
